XBFQV MMMD-MMVR
Flight info
| Callsign | XBFQV |
|---|---|
| Flight time | 1h 1m |
| Altitude | 40000 |
| Route | MMMD/10 N0485F430 ELSI1A ELSIP DCT OMPAN OMPA1A MMVR/01 |
| Aircraft | C750/M-VGDW/C |
Departure
| Time | 2026-05-08 05:06 |
|---|---|
| Airport | Manuel Crescencio Rejón International Airport (MMMD) |
Arrival
| Time | 2026-05-08 06:08 |
|---|---|
| Airport | General Heriberto Jara International Airport (MMVR) |
| Time | Latitude | Longitude | Altitude | Speed | Heading |
|---|---|---|---|---|---|
| 2026-05-08 05:03 | 20.93652 | -89.65973 | 41 ft | 0 kts | 1° |
| 2026-05-08 05:04 | 20.93654 | -89.65973 | 41 ft | 0 kts | 1° |
| 2026-05-08 05:04 | 20.93663 | -89.65973 | 41 ft | 1 kts | 2° |
| 2026-05-08 05:05 | 20.93676 | -89.65972 | 41 ft | 1 kts | 2° |
| 2026-05-08 05:05 | 20.93699 | -89.65971 | 42 ft | 6 kts | 1° |
| 2026-05-08 05:05 | 20.93742 | -89.65922 | 42 ft | 15 kts | 105° |
| 2026-05-08 05:05 | 20.93692 | -89.65729 | 41 ft | 46 kts | 106° |
| 2026-05-08 05:06 | 20.93533 | -89.65113 | 42 ft | 126 kts | 107° |
| 2026-05-08 05:06 | 20.93218 | -89.64027 | 201 ft | 175 kts | 108° |
| 2026-05-08 05:06 | 20.92818 | -89.62666 | 877 ft | 203 kts | 107° |
| 2026-05-08 05:06 | 20.92417 | -89.61156 | 1944 ft | 213 kts | 107° |
| 2026-05-08 05:07 | 20.92008 | -89.59337 | 2859 ft | 237 kts | 103° |
| 2026-05-08 05:07 | 20.91548 | -89.57635 | 3787 ft | 249 kts | 118° |
| 2026-05-08 05:07 | 20.90276 | -89.56389 | 4659 ft | 259 kts | 154° |
| 2026-05-08 05:07 | 20.88405 | -89.56028 | 4926 ft | 291 kts | 178° |
| 2026-05-08 05:08 | 20.86222 | -89.56023 | 4930 ft | 284 kts | 176° |
| 2026-05-08 05:08 | 20.84247 | -89.56010 | 4922 ft | 282 kts | 177° |
| 2026-05-08 05:08 | 20.82252 | -89.55994 | 4917 ft | 281 kts | 177° |
| 2026-05-08 05:08 | 20.80045 | -89.55981 | 4928 ft | 279 kts | 176° |
| 2026-05-08 05:09 | 20.77971 | -89.55964 | 4916 ft | 278 kts | 177° |
| 2026-05-08 05:09 | 20.75697 | -89.56003 | 5019 ft | 273 kts | 179° |
| 2026-05-08 05:09 | 20.73605 | -89.56062 | 5143 ft | 268 kts | 179° |
| 2026-05-08 05:09 | 20.71563 | -89.56135 | 5257 ft | 265 kts | 183° |
| 2026-05-08 05:10 | 20.69650 | -89.57092 | 5371 ft | 269 kts | 223° |
| 2026-05-08 05:10 | 20.67162 | -89.60582 | 5650 ft | 263 kts | 231° |
| 2026-05-08 05:10 | 20.65850 | -89.62417 | 5781 ft | 261 kts | 231° |
| 2026-05-08 05:11 | 20.64685 | -89.64043 | 5905 ft | 260 kts | 231° |
| 2026-05-08 05:11 | 20.63520 | -89.65666 | 6035 ft | 258 kts | 231° |
| 2026-05-08 05:11 | 20.62418 | -89.67203 | 6148 ft | 257 kts | 231° |
| 2026-05-08 05:11 | 20.61225 | -89.68864 | 6275 ft | 264 kts | 231° |
| 2026-05-08 05:12 | 20.59976 | -89.70603 | 6514 ft | 290 kts | 231° |
| 2026-05-08 05:12 | 20.58705 | -89.72374 | 7449 ft | 305 kts | 231° |
| 2026-05-08 05:12 | 20.57222 | -89.74442 | 8753 ft | 317 kts | 231° |
| 2026-05-08 05:12 | 20.55720 | -89.76530 | 8892 ft | 335 kts | 231° |
| 2026-05-08 05:13 | 20.54164 | -89.78693 | 8915 ft | 352 kts | 231° |
| 2026-05-08 05:13 | 20.52457 | -89.81068 | 8919 ft | 367 kts | 231° |
| 2026-05-08 05:13 | 20.50854 | -89.83296 | 8908 ft | 371 kts | 231° |
| 2026-05-08 05:13 | 20.49124 | -89.85701 | 8905 ft | 374 kts | 231° |
| 2026-05-08 05:14 | 20.47495 | -89.87958 | 8896 ft | 376 kts | 231° |
| 2026-05-08 05:14 | 20.45677 | -89.90480 | 8897 ft | 378 kts | 231° |
| 2026-05-08 05:14 | 20.43994 | -89.92816 | 8900 ft | 379 kts | 231° |
| 2026-05-08 05:14 | 20.42282 | -89.95191 | 8905 ft | 381 kts | 231° |
| 2026-05-08 05:15 | 20.40672 | -89.97424 | 9037 ft | 382 kts | 231° |
| 2026-05-08 05:15 | 20.38831 | -89.99977 | 9631 ft | 396 kts | 231° |
| 2026-05-08 05:15 | 20.36994 | -90.02521 | 11033 ft | 397 kts | 231° |
| 2026-05-08 05:15 | 20.35251 | -90.04930 | 12310 ft | 399 kts | 231° |
| 2026-05-08 05:16 | 20.33293 | -90.07642 | 13496 ft | 405 kts | 231° |
| 2026-05-08 05:16 | 20.31490 | -90.10143 | 14485 ft | 412 kts | 231° |
| 2026-05-08 05:16 | 20.29435 | -90.12991 | 15536 ft | 419 kts | 231° |
| 2026-05-08 05:16 | 20.27529 | -90.15624 | 16493 ft | 425 kts | 230° |
| 2026-05-08 05:17 | 20.25898 | -90.18687 | 17384 ft | 437 kts | 250° |
| 2026-05-08 05:17 | 20.25374 | -90.22105 | 18402 ft | 440 kts | 261° |
| 2026-05-08 05:17 | 20.24871 | -90.25523 | 19340 ft | 442 kts | 260° |
| 2026-05-08 05:17 | 20.24400 | -90.28922 | 20218 ft | 444 kts | 259° |
| 2026-05-08 05:18 | 20.23912 | -90.32275 | 21024 ft | 446 kts | 259° |
| 2026-05-08 05:18 | 20.23440 | -90.35503 | 21757 ft | 449 kts | 259° |
| 2026-05-08 05:18 | 20.22954 | -90.38806 | 22492 ft | 451 kts | 259° |
| 2026-05-08 05:18 | 20.22468 | -90.42120 | 23170 ft | 455 kts | 259° |
| 2026-05-08 05:19 | 20.21983 | -90.45416 | 23800 ft | 459 kts | 260° |
| 2026-05-08 05:19 | 20.21486 | -90.48802 | 24454 ft | 462 kts | 260° |
| 2026-05-08 05:19 | 20.20991 | -90.52170 | 25063 ft | 466 kts | 260° |
| 2026-05-08 05:19 | 20.20487 | -90.55585 | 25682 ft | 470 kts | 260° |
| 2026-05-08 05:20 | 20.19976 | -90.59043 | 26291 ft | 473 kts | 260° |
| 2026-05-08 05:20 | 20.19466 | -90.62489 | 26859 ft | 476 kts | 260° |
| 2026-05-08 05:20 | 20.18957 | -90.65942 | 27458 ft | 478 kts | 260° |
| 2026-05-08 05:20 | 20.18437 | -90.69442 | 27967 ft | 481 kts | 260° |
| 2026-05-08 05:21 | 20.17914 | -90.72970 | 28465 ft | 484 kts | 260° |
| 2026-05-08 05:21 | 20.17388 | -90.76504 | 28955 ft | 487 kts | 260° |
| 2026-05-08 05:21 | 20.16859 | -90.80059 | 29415 ft | 491 kts | 260° |
| 2026-05-08 05:21 | 20.16321 | -90.83669 | 29880 ft | 493 kts | 260° |
| 2026-05-08 05:22 | 20.15788 | -90.87242 | 30319 ft | 496 kts | 260° |
| 2026-05-08 05:22 | 20.15242 | -90.90890 | 30704 ft | 500 kts | 261° |
| 2026-05-08 05:22 | 20.14691 | -90.94571 | 31124 ft | 502 kts | 261° |
| 2026-05-08 05:22 | 20.14146 | -90.98206 | 31544 ft | 504 kts | 261° |
| 2026-05-08 05:23 | 20.13588 | -91.01924 | 31924 ft | 507 kts | 261° |
| 2026-05-08 05:23 | 20.13035 | -91.05603 | 32286 ft | 510 kts | 261° |
| 2026-05-08 05:23 | 20.12468 | -91.09371 | 32649 ft | 513 kts | 261° |
| 2026-05-08 05:23 | 20.11900 | -91.13131 | 32984 ft | 516 kts | 261° |
| 2026-05-08 05:24 | 20.11330 | -91.16898 | 33322 ft | 519 kts | 261° |
| 2026-05-08 05:24 | 20.10749 | -91.20734 | 33655 ft | 521 kts | 261° |
| 2026-05-08 05:24 | 20.10170 | -91.24560 | 33937 ft | 522 kts | 261° |
| 2026-05-08 05:24 | 20.09598 | -91.28333 | 34116 ft | 523 kts | 261° |
| 2026-05-08 05:25 | 20.09017 | -91.32158 | 34236 ft | 523 kts | 261° |
| 2026-05-08 05:25 | 20.07853 | -91.39808 | 34343 ft | 525 kts | 261° |
| 2026-05-08 05:26 | 20.06679 | -91.47493 | 34432 ft | 525 kts | 261° |
| 2026-05-08 05:26 | 20.05514 | -91.55108 | 34458 ft | 525 kts | 261° |
| 2026-05-08 05:27 | 20.04335 | -91.62772 | 34483 ft | 525 kts | 261° |
| 2026-05-08 05:27 | 20.03157 | -91.70411 | 34506 ft | 523 kts | 261° |
| 2026-05-08 05:27 | 20.02573 | -91.74194 | 34908 ft | 516 kts | 261° |
| 2026-05-08 05:28 | 20.01993 | -91.77925 | 35477 ft | 512 kts | 261° |
| 2026-05-08 05:28 | 20.01420 | -91.81632 | 36047 ft | 509 kts | 261° |
| 2026-05-08 05:28 | 20.00845 | -91.85329 | 36621 ft | 507 kts | 262° |
| 2026-05-08 05:28 | 20.00270 | -91.89027 | 37202 ft | 504 kts | 262° |
| 2026-05-08 05:29 | 19.99704 | -91.92664 | 37777 ft | 501 kts | 262° |
| 2026-05-08 05:29 | 19.99135 | -91.96336 | 38362 ft | 498 kts | 262° |
| 2026-05-08 05:29 | 19.98577 | -91.99908 | 38986 ft | 495 kts | 262° |
| 2026-05-08 05:29 | 19.98018 | -92.03517 | 39642 ft | 492 kts | 262° |
| 2026-05-08 05:30 | 19.97457 | -92.07104 | 39931 ft | 494 kts | 262° |
| 2026-05-08 05:30 | 19.96321 | -92.14339 | 39955 ft | 498 kts | 262° |
| 2026-05-08 05:31 | 19.95190 | -92.21536 | 39954 ft | 496 kts | 262° |
| 2026-05-08 05:31 | 19.94049 | -92.28777 | 39957 ft | 495 kts | 262° |
| 2026-05-08 05:32 | 19.92909 | -92.35996 | 39951 ft | 494 kts | 262° |
| 2026-05-08 05:32 | 19.91768 | -92.43207 | 39955 ft | 493 kts | 262° |
| 2026-05-08 05:33 | 19.90631 | -92.50354 | 39953 ft | 492 kts | 262° |
| 2026-05-08 05:33 | 19.89494 | -92.57498 | 39950 ft | 492 kts | 262° |
| 2026-05-08 05:34 | 19.88352 | -92.64640 | 39949 ft | 492 kts | 262° |
| 2026-05-08 05:34 | 19.87205 | -92.71809 | 39958 ft | 492 kts | 261° |
| 2026-05-08 05:35 | 19.86058 | -92.78948 | 39955 ft | 492 kts | 261° |
| 2026-05-08 05:35 | 19.84909 | -92.86096 | 39950 ft | 493 kts | 261° |
| 2026-05-08 05:36 | 19.83752 | -92.93265 | 39952 ft | 493 kts | 261° |
| 2026-05-08 05:36 | 19.82600 | -93.00389 | 39950 ft | 493 kts | 261° |
| 2026-05-08 05:37 | 19.81438 | -93.07542 | 39954 ft | 492 kts | 261° |
| 2026-05-08 05:37 | 19.80268 | -93.14733 | 39950 ft | 492 kts | 261° |
| 2026-05-08 05:38 | 19.79109 | -93.21848 | 39948 ft | 492 kts | 261° |
| 2026-05-08 05:38 | 19.77938 | -93.29011 | 39948 ft | 493 kts | 261° |
| 2026-05-08 05:39 | 19.76765 | -93.36163 | 39952 ft | 493 kts | 261° |
| 2026-05-08 05:39 | 19.75594 | -93.43287 | 39946 ft | 493 kts | 261° |
| 2026-05-08 05:40 | 19.74419 | -93.50428 | 39945 ft | 492 kts | 261° |
| 2026-05-08 05:40 | 19.73237 | -93.57582 | 39945 ft | 492 kts | 261° |
| 2026-05-08 05:41 | 19.72058 | -93.64704 | 39942 ft | 492 kts | 261° |
| 2026-05-08 05:41 | 19.70873 | -93.71830 | 39939 ft | 492 kts | 261° |
| 2026-05-08 05:42 | 19.69682 | -93.78998 | 39936 ft | 492 kts | 260° |
| 2026-05-08 05:42 | 19.68490 | -93.86137 | 39939 ft | 493 kts | 260° |
| 2026-05-08 05:43 | 19.67299 | -93.93258 | 39942 ft | 493 kts | 260° |
| 2026-05-08 05:43 | 19.66100 | -94.00407 | 39951 ft | 493 kts | 260° |
| 2026-05-08 05:44 | 19.64896 | -94.07570 | 39954 ft | 493 kts | 260° |
| 2026-05-08 05:44 | 19.63695 | -94.14693 | 39956 ft | 493 kts | 260° |
| 2026-05-08 05:45 | 19.62493 | -94.21810 | 39956 ft | 492 kts | 260° |
| 2026-05-08 05:45 | 19.61282 | -94.28960 | 39958 ft | 492 kts | 260° |
| 2026-05-08 05:46 | 19.60077 | -94.36059 | 39959 ft | 492 kts | 260° |
| 2026-05-08 05:46 | 19.58860 | -94.43205 | 39960 ft | 492 kts | 260° |
| 2026-05-08 05:47 | 19.57644 | -94.50330 | 39959 ft | 492 kts | 260° |
| 2026-05-08 05:47 | 19.56433 | -94.57412 | 39964 ft | 492 kts | 260° |
| 2026-05-08 05:48 | 19.55211 | -94.64538 | 39960 ft | 492 kts | 260° |
| 2026-05-08 05:48 | 19.53985 | -94.71673 | 39966 ft | 492 kts | 259° |
| 2026-05-08 05:49 | 19.52759 | -94.78788 | 39962 ft | 492 kts | 259° |
| 2026-05-08 05:49 | 19.51531 | -94.85904 | 39967 ft | 492 kts | 259° |
| 2026-05-08 05:50 | 19.50301 | -94.93001 | 39962 ft | 492 kts | 259° |
| 2026-05-08 05:50 | 19.48883 | -95.00088 | 39903 ft | 492 kts | 249° |
| 2026-05-08 05:50 | 19.47347 | -95.03299 | 40005 ft | 490 kts | 242° |
| 2026-05-08 05:51 | 19.45744 | -95.06446 | 39969 ft | 490 kts | 242° |
| 2026-05-08 05:51 | 19.42465 | -95.12791 | 39953 ft | 491 kts | 242° |
| 2026-05-08 05:52 | 19.39183 | -95.19127 | 39955 ft | 491 kts | 241° |
| 2026-05-08 05:52 | 19.35893 | -95.25470 | 39954 ft | 491 kts | 241° |
| 2026-05-08 05:52 | 19.34256 | -95.28619 | 39614 ft | 497 kts | 241° |
| 2026-05-08 05:53 | 19.32596 | -95.31812 | 38543 ft | 489 kts | 241° |
| 2026-05-08 05:53 | 19.30976 | -95.34927 | 37623 ft | 478 kts | 241° |
| 2026-05-08 05:53 | 19.29404 | -95.37951 | 36445 ft | 475 kts | 241° |
| 2026-05-08 05:53 | 19.27810 | -95.41016 | 35212 ft | 471 kts | 241° |
| 2026-05-08 05:54 | 19.26229 | -95.44051 | 33743 ft | 471 kts | 241° |
| 2026-05-08 05:54 | 19.24660 | -95.47060 | 32364 ft | 470 kts | 241° |
| 2026-05-08 05:54 | 19.23111 | -95.50036 | 31126 ft | 467 kts | 241° |
| 2026-05-08 05:54 | 19.21554 | -95.53024 | 29823 ft | 456 kts | 240° |
| 2026-05-08 05:55 | 19.20065 | -95.55878 | 28463 ft | 431 kts | 240° |
| 2026-05-08 05:55 | 19.18671 | -95.58548 | 27206 ft | 409 kts | 240° |
| 2026-05-08 05:55 | 19.17296 | -95.61168 | 25917 ft | 391 kts | 240° |
| 2026-05-08 05:55 | 19.16030 | -95.63592 | 24689 ft | 377 kts | 240° |
| 2026-05-08 05:56 | 19.14779 | -95.65980 | 23444 ft | 366 kts | 239° |
| 2026-05-08 05:56 | 19.13569 | -95.68278 | 22230 ft | 356 kts | 238° |
| 2026-05-08 05:56 | 19.12376 | -95.70486 | 21041 ft | 348 kts | 238° |
| 2026-05-08 05:56 | 19.11194 | -95.72679 | 19844 ft | 343 kts | 239° |
| 2026-05-08 05:57 | 19.10037 | -95.74840 | 18652 ft | 338 kts | 241° |
| 2026-05-08 05:57 | 19.09118 | -95.77073 | 17473 ft | 335 kts | 248° |
| 2026-05-08 05:57 | 19.08265 | -95.79302 | 16328 ft | 330 kts | 246° |
| 2026-05-08 05:57 | 19.07423 | -95.81474 | 16006 ft | 299 kts | 247° |
| 2026-05-08 05:58 | 19.06665 | -95.83435 | 15441 ft | 286 kts | 246° |
| 2026-05-08 05:58 | 19.05925 | -95.85332 | 14730 ft | 281 kts | 247° |
| 2026-05-08 05:58 | 19.05191 | -95.87222 | 14015 ft | 277 kts | 247° |
| 2026-05-08 05:58 | 19.04470 | -95.89073 | 13306 ft | 273 kts | 247° |
| 2026-05-08 05:59 | 19.03756 | -95.90911 | 12593 ft | 269 kts | 247° |
| 2026-05-08 05:59 | 19.03058 | -95.92708 | 11883 ft | 266 kts | 247° |
| 2026-05-08 05:59 | 19.02358 | -95.94503 | 11175 ft | 263 kts | 247° |
| 2026-05-08 05:59 | 19.01668 | -95.96275 | 10464 ft | 261 kts | 247° |
| 2026-05-08 06:00 | 19.00980 | -95.98041 | 9752 ft | 259 kts | 247° |
| 2026-05-08 06:00 | 19.00295 | -95.99800 | 9022 ft | 257 kts | 247° |
| 2026-05-08 06:00 | 18.99621 | -96.01537 | 8315 ft | 255 kts | 247° |
| 2026-05-08 06:00 | 18.98945 | -96.03273 | 7603 ft | 253 kts | 246° |
| 2026-05-08 06:01 | 18.98278 | -96.04985 | 6884 ft | 251 kts | 246° |
| 2026-05-08 06:01 | 18.97530 | -96.06902 | 6082 ft | 247 kts | 246° |
| 2026-05-08 06:01 | 18.96864 | -96.08605 | 5363 ft | 240 kts | 246° |
| 2026-05-08 06:01 | 18.96148 | -96.10431 | 4600 ft | 233 kts | 246° |
| 2026-05-08 06:02 | 18.95524 | -96.12028 | 4401 ft | 226 kts | 246° |
| 2026-05-08 06:02 | 18.94937 | -96.13702 | 4147 ft | 229 kts | 259° |
| 2026-05-08 06:02 | 18.95072 | -96.15393 | 3930 ft | 230 kts | 282° |
| 2026-05-08 06:02 | 18.95404 | -96.17055 | 3694 ft | 231 kts | 281° |
| 2026-05-08 06:03 | 18.95733 | -96.18791 | 3450 ft | 231 kts | 281° |
| 2026-05-08 06:03 | 18.96068 | -96.20445 | 3203 ft | 225 kts | 288° |
| 2026-05-08 06:03 | 18.97029 | -96.21712 | 2960 ft | 207 kts | 333° |
| 2026-05-08 06:03 | 18.98399 | -96.21976 | 2711 ft | 195 kts | 7° |
| 2026-05-08 06:04 | 18.99791 | -96.21764 | 2525 ft | 187 kts | 11° |
| 2026-05-08 06:04 | 19.01061 | -96.21529 | 2487 ft | 173 kts | 13° |
| 2026-05-08 06:04 | 19.02238 | -96.21294 | 2477 ft | 160 kts | 13° |
| 2026-05-08 06:04 | 19.03368 | -96.21061 | 2242 ft | 162 kts | 13° |
| 2026-05-08 06:05 | 19.04479 | -96.20830 | 1921 ft | 162 kts | 13° |
| 2026-05-08 06:05 | 19.05561 | -96.20606 | 1634 ft | 148 kts | 13° |
| 2026-05-08 06:05 | 19.06547 | -96.20401 | 1267 ft | 143 kts | 13° |
| 2026-05-08 06:05 | 19.07537 | -96.20196 | 1028 ft | 138 kts | 12° |
| 2026-05-08 06:06 | 19.08489 | -96.19999 | 823 ft | 136 kts | 12° |
| 2026-05-08 06:06 | 19.09425 | -96.19804 | 653 ft | 134 kts | 12° |
| 2026-05-08 06:06 | 19.10399 | -96.19602 | 595 ft | 134 kts | 12° |
| 2026-05-08 06:06 | 19.11346 | -96.19412 | 462 ft | 138 kts | 12° |
| 2026-05-08 06:07 | 19.12315 | -96.19208 | 258 ft | 138 kts | 12° |
| 2026-05-08 06:07 | 19.13264 | -96.19011 | 106 ft | 132 kts | 11° |
| 2026-05-08 06:07 | 19.14095 | -96.18838 | 93 ft | 110 kts | 11° |
| 2026-05-08 06:07 | 19.14715 | -96.18705 | 84 ft | 75 kts | 12° |
| 2026-05-08 06:08 | 19.14896 | -96.18665 | 82 ft | 12 kts | 11° |
| 2026-05-08 06:08 | 19.14939 | -96.18655 | 82 ft | 2 kts | 38° |
| 2026-05-08 06:08 | 19.14950 | -96.18617 | 82 ft | 7 kts | 92° |
| 2026-05-08 06:08 | 19.14933 | -96.18575 | 82 ft | 6 kts | 151° |
| 2026-05-08 06:09 | 19.14887 | -96.18565 | 82 ft | 7 kts | 174° |
| 2026-05-08 06:09 | 19.14833 | -96.18559 | 82 ft | 7 kts | 174° |
| 2026-05-08 06:09 | 19.14777 | -96.18551 | 83 ft | 9 kts | 172° |
| 2026-05-08 06:09 | 19.14659 | -96.18536 | 85 ft | 24 kts | 189° |
| 2026-05-08 06:10 | 19.14560 | -96.18551 | 85 ft | 7 kts | 170° |
| 2026-05-08 06:10 | 19.14506 | -96.18546 | 86 ft | 7 kts | 186° |
| 2026-05-08 06:10 | 19.14448 | -96.18555 | 87 ft | 9 kts | 191° |
| 2026-05-08 06:10 | 19.14367 | -96.18563 | 88 ft | 12 kts | 159° |
| 2026-05-08 06:11 | 19.14299 | -96.18500 | 88 ft | 15 kts | 186° |
| 2026-05-08 06:11 | 19.14189 | -96.18498 | 88 ft | 9 kts | 134° |
| 2026-05-08 06:11 | 19.14134 | -96.18492 | 88 ft | 7 kts | 193° |
| 2026-05-08 06:11 | 19.14094 | -96.18482 | 88 ft | 4 kts | 72° |
| 2026-05-08 06:12 | 19.14111 | -96.18471 | 88 ft | 0 kts | 15° |